Latest Weather Observations for Douglas River

IDD60801

Issued at 9:31 pm CST Friday 4 September 2015 (issued every 30 minutes, with the page automatically refreshed every 10 minutes)

About weather observations | Map of weather stations | Latest weather observations for NT | Other Formats
Station Details ID: 014901 Name: DOUGLAS RIVER Lat: -13.83 Lon: 131.19 Height: 42.8 m
Data from the previous 72 hours. | See also: Recent months at Douglas River
Date/Time
CST
Temp
°C
App
Temp
°C
Dew
Point
Rel
Hum
%
Delta-T
°C
Wind Press
QNH
hPa
Press
MSL
hPa
Rain
since 9 am
mm
Dir
 
Spd
km/h
Gust
km/h
Spd
kts
Gust
kts
04/09:30pm 27.6 29.2 19.2 60 5.4 WNW 9 15 5 8 1015.5 1015.2 0.0
04/09:00pm 28.4 28.0 13.0 38 9.1 ESE 7 11 4 6 1014.9 1014.6 0.0
04/08:30pm 28.6 27.5 12.1 36 9.6 SE 9 13 5 7 1014.6 1014.3 0.0
04/08:00pm 30.2 29.3 12.6 34 10.4 SE 9 11 5 6 1014.2 1013.9 0.0
04/07:30pm 30.5 29.4 11.8 31 10.9 SE 9 11 5 6 1013.7 1013.4 0.0
04/07:00pm 31.4 30.3 11.8 30 11.5 SE 9 11 5 6 1013.4 1013.1 0.0
04/06:30pm 32.7 31.0 11.1 26 12.6 ESE 11 13 6 7 1013.2 1012.9 0.0
04/06:00pm 34.5 32.7 10.7 23 13.9 SE 11 17 6 9 1012.8 1012.5 0.0
04/05:30pm 35.6 33.1 11.0 22 14.5 SE 15 20 8 11 1012.5 1012.2 0.0
04/05:00pm 35.9 35.2 11.3 22 14.6 S 6 9 3 5 1012.4 1012.1 0.0
04/04:30pm 36.4 34.6 10.8 21 15.1 E 11 20 6 11 1012.4 1012.1 0.0
04/04:00pm 36.1 34.3 12.1 23 14.4 ESE 13 19 7 10 1012.4 1012.1 0.0
04/03:30pm 35.9 33.2 11.8 23 14.4 SE 17 24 9 13 1012.7 1012.4 0.0
04/03:00pm 35.8 35.8 14.1 27 13.4 ENE 7 17 4 9 1013.1 1012.8 0.0
04/02:30pm 35.7 35.4 14.4 28 13.2 SE 9 19 5 10 1013.4 1013.1 0.0
04/02:00pm 35.7 34.5 13.9 27 13.4 ESE 13 20 7 11 1013.9 1013.6 0.0
04/01:30pm 35.0 34.6 14.0 28 12.9 NE 9 19 5 10 1014.3 1014.0 0.0
04/01:00pm 36.1 35.7 14.1 26 13.6 NE 9 19 5 10 1015.0 1014.7 0.0
04/12:30pm 35.2 35.2 14.1 28 13.0 NNE 7 15 4 8 1015.5 1015.2 0.0
04/12:00pm 33.3 34.6 17.6 39 10.1 NNW 7 13 4 7 1016.2 1015.9 0.0
04/11:30am 33.0 33.8 17.4 39 10.0 ENE 9 15 5 8 1016.8 1016.5 0.0
04/11:00am 32.3 33.5 17.4 41 9.5 NNE 7 11 4 6 1017.3 1017.1 0.0
04/10:30am 31.7 32.7 16.8 40 9.4 NE 7 13 4 7 1017.6 1017.4 0.0
04/10:00am 30.2 31.8 17.8 47 7.9 NNW 6 9 3 5 1017.6 1017.4 0.0
04/09:30am 29.2 31.7 18.1 51 7.1 N 2 7 1 4 1017.7 1017.5 0.0
04/09:28am 29.3 32.1 18.8 53 6.8 N 2 7 1 4 1017.7 - 0.0
04/09:00am 26.9 29.6 19.5 64 4.8 NE 4 7 2 4 1017.6 1017.4 0.0
04/08:30am 24.2 27.2 19.2 73 3.2 ENE 2 7 1 4 1017.4 1017.2 0.0
04/08:00am 21.5 24.3 18.0 80 2.2 CALM 0 0 0 0 1017.3 1017.1 0.0
04/07:30am 19.9 22.1 17.4 85 1.5 ENE 2 11 1 6 1017.0 1016.7 0.0
04/07:00am 19.4 21.6 16.6 84 1.7 CALM 0 0 0 0 1016.6 1016.3 0.0
04/06:30am 19.2 21.5 16.7 85 1.5 CALM 0 0 0 0 1016.2 1015.9 0.0
04/06:00am 20.8 22.8 17.0 79 2.3 NNE 2 6 1 3 1015.8 1015.5 0.0
04/05:30am 20.9 22.8 16.6 76 2.6 N 2 9 1 5 1015.5 1015.2 0.0
04/05:00am 20.8 22.8 16.9 78 2.4 N 2 6 1 3 1015.5 1015.2 0.0
04/04:30am 20.4 20.9 16.6 79 2.3 NE 9 11 5 6 1015.7 1015.4 0.0
04/04:00am 20.6 22.7 17.2 81 2.1 WSW 2 6 1 3 1015.2 1014.9 0.0
04/03:30am 20.8 22.4 17.0 79 2.3 W 4 9 2 5 1015.1 1014.8 0.0
04/03:00am 19.7 21.4 16.2 80 2.1 ESE 2 9 1 5 1015.1 1014.8 0.0
04/02:30am 21.6 24.4 17.9 79 2.3 CALM 0 0 0 0 1015.0 1014.7 0.0
04/02:00am 21.3 23.6 16.7 75 2.8 CALM 0 0 0 0 1015.3 1015.0 0.0
04/01:30am 23.6 26.3 17.8 70 3.6 CALM 0 6 0 3 1015.2 1014.9 0.0
04/01:00am 23.2 24.8 16.8 67 3.9 NNE 4 6 2 3 1015.4 1015.1 0.0
04/12:30am 23.3 25.5 16.6 66 4.1 CALM 0 0 0 0 1015.3 1015.0 0.0
04/12:00am 23.6 25.3 15.1 59 5.1 CALM 0 6 0 3 1015.5 1015.2 0.0
 
Date/Time
CST
Temp
°C
App
Temp
°C
Dew
Point
Rel
Hum
%
Delta-T
°C
Wind Press
QNH
hPa
Press
MSL
hPa
Rain
since 9 am
mm
Dir
 
Spd
km/h
Gust
km/h
Spd
kts
Gust
kts
03/11:30pm 25.2 25.8 15.3 54 6.0 NW 6 7 3 4 1015.3 1015.0 0.0
03/11:00pm 25.9 26.1 14.7 50 6.7 WNW 7 11 4 6 1015.2 1014.9 0.0
03/10:30pm 26.7 26.8 14.5 47 7.3 NW 7 11 4 6 1015.3 1015.0 0.0
03/10:00pm 27.4 27.0 14.2 44 7.9 NW 9 15 5 8 1015.4 1015.1 0.0
03/09:30pm 28.2 28.1 15.0 44 8.0 NW 9 17 5 9 1015.2 1014.9 0.0
03/09:00pm 29.4 28.4 14.6 40 9.0 WNW 13 24 7 13 1014.7 1014.4 0.0
03/08:30pm 29.9 29.7 14.8 39 9.2 WNW 9 19 5 10 1014.0 1013.7 0.0
03/08:00pm 30.6 32.3 15.2 39 9.5 CALM 0 0 0 0 1013.4 1013.1 0.0
03/07:30pm 31.6 31.4 13.0 32 11.1 SE 6 7 3 4 1013.0 1012.7 0.0
03/07:00pm 32.5 33.7 13.9 32 11.3 CALM 0 0 0 0 1012.5 1012.2 0.0
03/06:30pm 34.2 33.5 13.3 28 12.7 SE 9 13 5 7 1012.2 1011.9 0.0
03/06:00pm 35.6 35.1 12.6 25 13.9 SSE 7 9 4 5 1012.1 1011.8 0.0
03/05:30pm 36.3 34.7 11.7 22 14.7 S 11 15 6 8 1011.8 1011.5 0.0
03/05:00pm 37.0 35.0 11.6 21 15.2 SSE 13 19 7 10 1011.7 1011.4 0.0
03/04:30pm 36.5 35.9 11.8 22 14.8 NNW 6 13 3 7 1011.8 1011.5 0.0
03/04:00pm 37.3 36.4 12.6 22 15.0 SW 9 15 5 8 1011.8 1011.5 0.0
03/03:30pm 36.3 34.0 11.7 22 14.7 SSE 15 20 8 11 1012.0 1011.7 0.0
03/03:00pm 37.5 37.4 13.2 23 14.9 SSE 6 11 3 6 1012.2 1011.9 0.0
03/02:30pm 36.6 35.2 12.2 23 14.7 SE 11 19 6 10 1012.6 1012.3 0.0
03/02:00pm 36.9 36.3 12.4 23 14.8 N 7 15 4 8 1013.0 1012.7 0.0
03/01:30pm 36.4 35.9 12.6 24 14.4 N 7 13 4 7 1013.5 1013.2 0.0
03/01:00pm 35.6 34.9 13.3 26 13.6 SW 9 15 5 8 1014.1 1013.8 0.0
03/12:30pm 34.6 34.0 13.6 28 12.8 WNW 9 19 5 10 1014.7 1014.4 0.0
03/12:00pm 34.1 34.1 14.2 30 12.2 WSW 7 11 4 6 1015.2 1014.9 0.0
03/11:30am 33.1 33.2 15.4 34 11.0 NW 9 15 5 8 1015.8 1015.5 0.0
03/11:00am 32.2 32.5 16.1 38 10.1 NW 9 13 5 7 1016.2 1015.9 0.0
03/10:30am 31.0 31.7 16.1 40 9.3 WSW 7 13 4 7 1016.4 1016.1 0.0
03/10:00am 30.2 30.6 16.3 43 8.7 W 9 17 5 9 1016.6 1016.3 0.0
03/09:30am 29.4 29.1 16.4 45 8.1 W 13 17 7 9 1016.5 1016.2 0.0
03/09:00am 28.8 29.6 18.1 52 6.8 W 11 17 6 9 1016.5 1016.2 0.0
03/08:30am 25.8 27.2 17.3 59 5.3 NW 6 9 3 5 1016.4 1016.1 0.0
03/08:00am 22.4 24.7 16.8 70 3.4 CALM 0 0 0 0 1016.5 1016.2 0.0
03/07:30am 21.1 23.9 17.9 82 2.0 CALM 0 0 0 0 1016.4 1016.1 0.0
03/07:00am 20.4 22.9 17.3 82 1.9 CALM 0 0 0 0 1015.8 1015.5 0.0
03/06:30am 21.1 23.9 17.9 82 2.0 CALM 0 0 0 0 1015.3 1015.0 0.0
03/06:00am 22.2 25.0 17.9 76 2.7 CALM 0 0 0 0 1014.8 1014.5 0.0
03/05:30am 22.6 25.1 18.1 76 2.8 NNW 2 6 1 3 1014.5 1014.2 0.0
03/05:00am 22.3 24.0 18.0 76 2.7 WNW 6 9 3 5 1014.2 1013.9 0.0
03/04:30am 22.0 24.7 17.8 77 2.6 CALM 0 0 0 0 1014.1 1013.8 0.0
03/04:00am 22.9 25.2 17.8 73 3.2 N 2 7 1 4 1014.2 1013.9 0.0
03/03:30am 22.4 24.2 17.4 73 3.1 W 4 9 2 5 1014.4 1014.1 0.0
03/03:00am 23.3 25.8 17.3 69 3.7 CALM 0 0 0 0 1014.2 1013.9 0.0
03/02:30am 23.3 25.1 17.5 70 3.6 NNW 4 7 2 4 1014.1 1013.8 0.0
03/02:00am 22.0 23.2 17.3 74 2.9 NNE 7 11 4 6 1014.2 1013.9 0.0
03/01:30am 22.8 24.0 17.3 71 3.4 NW 7 11 4 6 1013.8 1013.5 0.0
03/01:00am 23.2 24.5 17.0 68 3.8 NW 6 9 3 5 1014.1 1013.8 0.0
03/12:30am 23.5 25.2 17.2 67 3.9 NNW 4 7 2 4 1014.3 1014.0 0.0
03/12:00am 24.3 25.6 17.2 64 4.4 NW 6 11 3 6 1014.3 1014.0 0.0
 
Date/Time
CST
Temp
°C
App
Temp
°C
Dew
Point
Rel
Hum
%
Delta-T
°C
Wind Press
QNH
hPa
Press
MSL
hPa
Rain
since 9 am
mm
Dir
 
Spd
km/h
Gust
km/h
Spd
kts
Gust
kts
02/11:30pm 25.0 26.1 16.6 59 5.2 N 6 9 3 5 1014.4 1014.1 0.0
02/11:00pm 25.3 26.2 16.2 57 5.6 NNW 6 7 3 4 1014.3 1014.0 0.0
02/10:30pm 25.7 26.5 15.9 54 6.0 N 6 11 3 6 1014.1 1013.8 0.0
02/10:00pm 26.8 27.4 15.9 51 6.7 NW 7 11 4 6 1013.9 1013.6 0.0
02/09:30pm 27.9 28.5 15.7 47 7.5 NW 7 11 4 6 1013.5 1013.2 0.0
02/09:00pm 28.4 28.9 15.5 45 7.9 WNW 7 15 4 8 1013.3 1013.0 0.0
02/08:30pm 28.5 28.4 15.0 43 8.2 WNW 9 15 5 8 1013.0 1012.7 0.0
02/08:00pm 28.1 30.5 17.1 51 6.9 CALM 0 0 0 0 1012.3 1012.0 0.0
02/07:30pm 29.2 31.0 15.6 43 8.4 CALM 0 0 0 0 1011.9 1011.6 0.0
02/07:00pm 30.5 32.1 14.8 38 9.6 CALM 0 0 0 0 1011.5 1011.2 0.0
02/06:30pm 31.7 33.4 15.2 36 10.2 CALM 0 0 0 0 1011.3 1011.0 0.0
02/06:00pm 33.3 33.9 15.3 34 11.2 SSW 6 9 3 5 1011.1 1010.8 0.0
02/05:30pm 34.3 33.3 12.2 26 13.2 SW 9 9 5 5 1010.9 1010.6 0.0
02/05:00pm 34.7 34.3 13.1 27 13.1 S 7 9 4 5 1010.7 1010.4 0.0
02/04:30pm 34.2 33.4 13.0 27 12.8 SSE 9 11 5 6 1010.7 1010.4 0.0
02/04:00pm 34.7 34.2 12.6 26 13.3 ENE 7 17 4 9 1010.8 1010.5 0.0
02/03:30pm 35.4 34.9 13.7 27 13.3 WSW 9 17 5 9 1010.9 1010.6 0.0
02/03:00pm 36.1 35.7 12.9 24 14.1 WSW 7 13 4 7 1011.3 1011.0 0.0
02/02:30pm 35.6 34.7 13.8 27 13.4 WSW 11 19 6 10 1011.8 1011.5 0.0
02/02:00pm 34.5 34.1 14.0 29 12.6 SSW 9 17 5 9 1012.4 1012.1 0.0
02/01:30pm 34.2 34.2 14.2 30 12.3 WSW 7 15 4 8 1013.1 1012.8 0.0
02/01:00pm 33.0 33.0 15.1 34 11.1 SE 9 15 5 8 1013.7 1013.4 0.0
02/12:30pm 33.4 33.0 15.2 33 11.3 SW 11 19 6 10 1014.4 1014.1 0.0
02/12:00pm 32.6 32.9 16.0 36 10.4 W 9 17 5 9 1015.0 1014.7 0.0
02/11:30am 31.8 32.0 15.7 37 10.0 WSW 9 19 5 10 1015.7 1015.4 0.0
02/11:00am 30.6 30.3 16.4 42 8.9 SW 13 19 7 10 1016.3 1016.0 0.0
02/10:30am 29.7 29.9 16.8 45 8.1 W 11 22 6 12 1016.8 1016.5 0.0
02/10:00am 29.2 28.9 16.5 46 7.9 W 13 20 7 11 1016.9 1016.6 0.0
02/09:30am 28.2 29.7 17.6 52 6.7 WNW 6 11 3 6 1016.9 1016.6 0.0
02/09:00am 27.1 30.0 19.0 61 5.2 N 2 7 1 4 1016.7 1016.4 0.0
02/08:30am 24.1 26.9 18.9 72 3.3 NNE 2 6 1 3 1016.2 1015.9 0.0
02/08:00am 21.9 24.9 18.4 80 2.2 CALM 0 0 0 0 1015.8 1015.5 0.0
02/07:30am 19.6 22.3 17.8 89 1.1 CALM 0 0 0 0 1015.5 1015.2 0.0
02/07:00am 19.7 22.6 18.2 91 0.9 CALM 0 0 0 0 1015.1 1014.8 0.0
02/06:30am 18.9 21.5 17.4 91 0.9 CALM 0 0 0 0 1014.6 1014.3 0.0
02/06:00am 19.2 21.7 17.2 88 1.2 CALM 0 0 0 0 1014.3 1014.0 0.0
02/05:30am 19.2 21.8 17.4 89 1.1 CALM 0 0 0 0 1014.0 1013.7 0.0
02/05:00am 20.8 23.8 18.4 86 1.5 CALM 0 0 0 0 1013.9 1013.6 0.0
02/04:30am 21.4 23.7 18.5 83 1.8 NNE 4 6 2 3 1013.8 1013.5 0.0
02/04:00am 20.4 23.2 18.0 86 1.5 CALM 0 0 0 0 1013.8 1013.5 0.0
02/03:30am 21.3 24.2 18.3 83 1.9 CALM 0 0 0 0 1013.6 1013.3 0.0
02/03:00am 22.1 23.9 18.3 79 2.4 NNW 6 9 3 5 1013.5 1013.2 0.0
02/02:30am 21.9 23.6 18.0 78 2.4 N 6 9 3 5 1013.6 1013.3 0.0
02/02:00am 22.0 23.8 18.2 79 2.4 N 6 9 3 5 1013.7 1013.4 0.0
02/01:30am 22.6 24.2 18.3 76 2.7 NW 7 11 4 6 1013.8 1013.5 0.0
02/01:00am 23.0 24.8 18.2 74 3.0 NNW 6 9 3 5 1014.0 1013.7 0.0
02/12:30am 23.1 24.7 18.2 74 3.1 NW 7 11 4 6 1014.0 1013.7 0.0
02/12:00am 23.4 25.2 18.3 73 3.2 NNW 6 11 3 6 1014.1 1013.8 0.0
 
Date/Time
CST
Temp
°C
App
Temp
°C
Dew
Point
Rel
Hum
%
Delta-T
°C
Wind Press
QNH
hPa
Press
MSL
hPa
Rain
since 9 am
mm
Dir
 
Spd
km/h
Gust
km/h
Spd
kts
Gust
kts
01/11:30pm 23.8 25.6 18.4 72 3.4 NW 6 9 3 5 1014.1 1013.8 0.0
01/11:00pm 24.2 26.1 18.5 70 3.6 NW 6 7 3 4 1013.9 1013.6 0.0
01/10:30pm 24.9 26.8 18.6 68 4.0 NW 6 9 3 5 1013.9 1013.6 0.0
01/10:00pm 25.8 27.4 18.2 63 4.8 NW 7 11 4 6 1013.7 1013.4 0.0

Other Formats:

Comma delimited format used in spreadsheet applications
http://www.bom.gov.au/fwo/IDD60801/IDD60801.94128.axf

JavaScript Object Notation format (JSON) in row-major order
http://www.bom.gov.au/fwo/IDD60801/IDD60801.94128.json